Atlanta, Georgia
Traffic Map
Current Weather Conditions
Atlanta, Georgia
Scattered Clouds
Scattered Clouds
30°
Feels Like: 34°
Wind Chill: 30° Ceiling: Unl
Heat Index: 34° Visibility: 10mi
Dew Point: 23° Wind: 12mph
Humidity: 65% Direction: 300° (WNW)
Pressure: 29.96in Gusts: 21mph
Raw Report DataKATL 281552Z 30010G18KT 10SM FEW030 SCT180 30/23 A2996 RMK AO2 SLP131 T03000228
Traffic Incident Summary
Active as of:
Severity:
Category:
InformationThere was an issue retrieving the traffic information for this location. Please try a different location or try again shortly.
Advertisements
Track Severe Weather on mobile